sensor_id;sensor_type;location;lat;lon;timestamp;pressure;altitude;pressure_sealevel;temperature;humidity
66668;BME280;57205;51.438;-2.006;2023-02-11T00:00:20;102935.69;;;6.84;100.00
66668;BME280;57205;51.438;-2.006;2023-02-11T00:02:45;102937.06;;;6.80;100.00
66668;BME280;57205;51.438;-2.006;2023-02-11T00:05:10;102942.75;;;6.77;100.00
66668;BME280;57205;51.438;-2.006;2023-02-11T00:07:36;102930.81;;;6.73;100.00
66668;BME280;57205;51.438;-2.006;2023-02-11T00:10:01;102942.81;;;6.69;100.00
66668;BME280;57205;51.438;-2.006;2023-02-11T00:12:28;102936.84;;;6.67;100.00
66668;BME280;57205;51.438;-2.006;2023-02-11T00:14:53;102939.72;;;6.66;100.00
66668;BME280;57205;51.438;-2.006;2023-02-11T00:17:18;102938.22;;;6.63;100.00
66668;BME280;57205;51.438;-2.006;2023-02-11T00:19:44;102944.75;;;6.61;100.00
66668;BME280;57205;51.438;-2.006;2023-02-11T00:22:09;102948.78;;;6.57;100.00
66668;BME280;57205;51.438;-2.006;2023-02-11T00:24:35;102944.81;;;6.53;100.00
66668;BME280;57205;51.438;-2.006;2023-02-11T00:27:00;102943.53;;;6.49;100.00
66668;BME280;57205;51.438;-2.006;2023-02-11T00:29:25;102944.06;;;6.44;100.00
66668;BME280;57205;51.438;-2.006;2023-02-11T00:31:53;102941.75;;;6.41;100.00
66668;BME280;57205;51.438;-2.006;2023-02-11T00:34:18;102925.34;;;6.38;100.00
66668;BME280;57205;51.438;-2.006;2023-02-11T00:36:43;102926.53;;;6.35;100.00
66668;BME280;57205;51.438;-2.006;2023-02-11T00:39:09;102919.94;;;6.31;100.00
66668;BME280;57205;51.438;-2.006;2023-02-11T00:41:34;102909.19;;;6.25;100.00
66668;BME280;57205;51.438;-2.006;2023-02-11T00:44:00;102908.91;;;6.20;100.00
66668;BME280;57205;51.438;-2.006;2023-02-11T00:46:25;102916.41;;;6.16;100.00
66668;BME280;57205;51.438;-2.006;2023-02-11T00:48:51;102923.91;;;6.13;100.00
66668;BME280;57205;51.438;-2.006;2023-02-11T00:51:19;102925.72;;;6.12;100.00
66668;BME280;57205;51.438;-2.006;2023-02-11T00:53:44;102925.56;;;6.14;100.00
66668;BME280;57205;51.438;-2.006;2023-02-11T00:56:09;102924.56;;;6.15;100.00
66668;BME280;57205;51.438;-2.006;2023-02-11T00:58:35;102931.19;;;6.19;100.00
66668;BME280;57205;51.438;-2.006;2023-02-11T01:01:00;102933.84;;;6.19;100.00
66668;BME280;57205;51.438;-2.006;2023-02-11T01:03:26;102931.66;;;6.22;100.00
66668;BME280;57205;51.438;-2.006;2023-02-11T01:05:51;102942.75;;;6.26;100.00
66668;BME280;57205;51.438;-2.006;2023-02-11T01:08:17;102943.84;;;6.31;100.00
66668;BME280;57205;51.438;-2.006;2023-02-11T01:10:42;102941.47;;;6.36;100.00
66668;BME280;57205;51.438;-2.006;2023-02-11T01:13:08;102942.41;;;6.43;100.00
66668;BME280;57205;51.438;-2.006;2023-02-11T01:15:33;102943.53;;;6.49;100.00
66668;BME280;57205;51.438;-2.006;2023-02-11T01:17:58;102945.66;;;6.53;100.00
66668;BME280;57205;51.438;-2.006;2023-02-11T01:20:24;102943.28;;;6.58;100.00
66668;BME280;57205;51.438;-2.006;2023-02-11T01:22:50;102944.56;;;6.62;100.00
66668;BME280;57205;51.438;-2.006;2023-02-11T01:25:16;102944.19;;;6.65;100.00
66668;BME280;57205;51.438;-2.006;2023-02-11T01:27:41;102934.00;;;6.69;100.00
66668;BME280;57205;51.438;-2.006;2023-02-11T01:30:07;102927.50;;;6.71;100.00
66668;BME280;57205;51.438;-2.006;2023-02-11T01:32:33;102919.44;;;6.79;100.00
66668;BME280;57205;51.438;-2.006;2023-02-11T01:34:59;102918.09;;;6.83;100.00
66668;BME280;57205;51.438;-2.006;2023-02-11T01:37:24;102918.72;;;6.85;100.00
66668;BME280;57205;51.438;-2.006;2023-02-11T01:39:50;102917.97;;;6.91;100.00
66668;BME280;57205;51.438;-2.006;2023-02-11T01:42:16;102912.66;;;6.91;100.00
66668;BME280;57205;51.438;-2.006;2023-02-11T01:44:42;102915.97;;;6.93;100.00
66668;BME280;57205;51.438;-2.006;2023-02-11T01:47:08;102910.63;;;6.93;100.00
66668;BME280;57205;51.438;-2.006;2023-02-11T01:49:35;102911.47;;;6.94;100.00
66668;BME280;57205;51.438;-2.006;2023-02-11T01:54:28;102916.41;;;6.97;100.00
66668;BME280;57205;51.438;-2.006;2023-02-11T01:57:13;102909.06;;;6.99;100.00
66668;BME280;57205;51.438;-2.006;2023-02-11T01:59:49;102917.88;;;7.00;100.00
66668;BME280;57205;51.438;-2.006;2023-02-11T02:02:18;102913.22;;;7.02;100.00
66668;BME280;57205;51.438;-2.006;2023-02-11T02:04:47;102911.38;;;7.02;100.00
66668;BME280;57205;51.438;-2.006;2023-02-11T02:07:16;102917.34;;;7.04;100.00
66668;BME280;57205;51.438;-2.006;2023-02-11T02:09:49;102914.31;;;7.07;100.00
66668;BME280;57205;51.438;-2.006;2023-02-11T02:12:17;102918.44;;;7.10;100.00
66668;BME280;57205;51.438;-2.006;2023-02-11T02:14:42;102913.72;;;7.12;100.00
66668;BME280;57205;51.438;-2.006;2023-02-11T02:17:16;102906.69;;;7.19;100.00
66668;BME280;57205;51.438;-2.006;2023-02-11T02:22:32;102911.53;;;7.30;100.00
66668;BME280;57205;51.438;-2.006;2023-02-11T02:25:04;102904.81;;;7.34;100.00
66668;BME280;57205;51.438;-2.006;2023-02-11T02:27:48;102904.00;;;7.33;100.00
66668;BME280;57205;51.438;-2.006;2023-02-11T02:36:01;102906.19;;;7.30;100.00
66668;BME280;57205;51.438;-2.006;2023-02-11T02:38:41;102904.53;;;7.29;100.00
66668;BME280;57205;51.438;-2.006;2023-02-11T02:41:09;102904.19;;;7.32;100.00
66668;BME280;57205;51.438;-2.006;2023-02-11T02:43:36;102895.81;;;7.35;100.00
66668;BME280;57205;51.438;-2.006;2023-02-11T02:46:18;102888.66;;;7.35;100.00
66668;BME280;57205;51.438;-2.006;2023-02-11T02:48:44;102886.19;;;7.34;100.00
66668;BME280;57205;51.438;-2.006;2023-02-11T02:53:42;102880.84;;;7.34;100.00
66668;BME280;57205;51.438;-2.006;2023-02-11T02:56:13;102881.03;;;7.32;100.00
66668;BME280;57205;51.438;-2.006;2023-02-11T02:58:47;102878.34;;;7.32;100.00
66668;BME280;57205;51.438;-2.006;2023-02-11T03:01:25;102879.38;;;7.31;100.00
66668;BME280;57205;51.438;-2.006;2023-02-11T03:04:09;102880.22;;;7.32;100.00
66668;BME280;57205;51.438;-2.006;2023-02-11T03:06:47;102878.81;;;7.36;100.00
66668;BME280;57205;51.438;-2.006;2023-02-11T03:09:23;102875.16;;;7.37;100.00
66668;BME280;57205;51.438;-2.006;2023-02-11T03:11:49;102876.03;;;7.44;100.00
66668;BME280;57205;51.438;-2.006;2023-02-11T03:14:16;102875.03;;;7.45;100.00
66668;BME280;57205;51.438;-2.006;2023-02-11T03:16:42;102871.09;;;7.41;100.00
66668;BME280;57205;51.438;-2.006;2023-02-11T03:19:19;102870.06;;;7.42;100.00
66668;BME280;57205;51.438;-2.006;2023-02-11T03:21:47;102873.94;;;7.39;100.00
66668;BME280;57205;51.438;-2.006;2023-02-11T03:24:15;102873.13;;;7.39;100.00
66668;BME280;57205;51.438;-2.006;2023-02-11T03:26:50;102872.28;;;7.38;100.00
66668;BME280;57205;51.438;-2.006;2023-02-11T03:34:29;102873.47;;;7.36;100.00
66668;BME280;57205;51.438;-2.006;2023-02-11T03:36:59;102875.34;;;7.35;100.00
66668;BME280;57205;51.438;-2.006;2023-02-11T03:39:28;102871.84;;;7.35;100.00
66668;BME280;57205;51.438;-2.006;2023-02-11T03:41:55;102870.19;;;7.34;100.00
66668;BME280;57205;51.438;-2.006;2023-02-11T03:44:22;102876.53;;;7.33;100.00
66668;BME280;57205;51.438;-2.006;2023-02-11T03:46:50;102874.88;;;7.32;100.00
66668;BME280;57205;51.438;-2.006;2023-02-11T03:49:16;102876.91;;;7.30;100.00
66668;BME280;57205;51.438;-2.006;2023-02-11T03:51:44;102873.41;;;7.29;100.00
66668;BME280;57205;51.438;-2.006;2023-02-11T03:54:12;102876.28;;;7.28;100.00
66668;BME280;57205;51.438;-2.006;2023-02-11T03:56:41;102875.44;;;7.27;100.00
66668;BME280;57205;51.438;-2.006;2023-02-11T03:59:08;102878.28;;;7.26;100.00
66668;BME280;57205;51.438;-2.006;2023-02-11T04:01:33;102871.94;;;7.27;100.00
66668;BME280;57205;51.438;-2.006;2023-02-11T04:03:58;102877.25;;;7.27;100.00
66668;BME280;57205;51.438;-2.006;2023-02-11T04:06:24;102873.81;;;7.26;100.00
66668;BME280;57205;51.438;-2.006;2023-02-11T04:08:49;102867.66;;;7.26;100.00
66668;BME280;57205;51.438;-2.006;2023-02-11T04:11:14;102877.66;;;7.24;100.00
66668;BME280;57205;51.438;-2.006;2023-02-11T04:13:39;102878.50;;;7.24;100.00
66668;BME280;57205;51.438;-2.006;2023-02-11T04:16:04;102873.97;;;7.25;100.00
66668;BME280;57205;51.438;-2.006;2023-02-11T04:18:30;102875.44;;;7.27;100.00
66668;BME280;57205;51.438;-2.006;2023-02-11T04:20:55;102876.28;;;7.28;100.00
66668;BME280;57205;51.438;-2.006;2023-02-11T04:23:20;102876.28;;;7.28;100.00
66668;BME280;57205;51.438;-2.006;2023-02-11T04:25:45;102889.19;;;7.31;100.00
66668;BME280;57205;51.438;-2.006;2023-02-11T04:28:11;102888.56;;;7.29;100.00
66668;BME280;57205;51.438;-2.006;2023-02-11T04:30:36;102886.53;;;7.31;100.00
66668;BME280;57205;51.438;-2.006;2023-02-11T04:33:01;102886.72;;;7.29;100.00
66668;BME280;57205;51.438;-2.006;2023-02-11T04:35:27;102891.22;;;7.29;100.00
66668;BME280;57205;51.438;-2.006;2023-02-11T04:37:52;102900.88;;;7.30;100.00
66668;BME280;57205;51.438;-2.006;2023-02-11T04:40:17;102892.88;;;7.30;100.00
66668;BME280;57205;51.438;-2.006;2023-02-11T04:42:43;102899.66;;;7.32;100.00
66668;BME280;57205;51.438;-2.006;2023-02-11T04:45:08;102906.00;;;7.31;100.00
66668;BME280;57205;51.438;-2.006;2023-02-11T04:47:33;102899.84;;;7.31;100.00
66668;BME280;57205;51.438;-2.006;2023-02-11T04:49:58;102898.22;;;7.30;100.00
66668;BME280;57205;51.438;-2.006;2023-02-11T04:52:24;102895.56;;;7.30;100.00
66668;BME280;57205;51.438;-2.006;2023-02-11T04:54:49;102902.50;;;7.31;100.00
66668;BME280;57205;51.438;-2.006;2023-02-11T04:57:14;102895.56;;;7.30;100.00
66668;BME280;57205;51.438;-2.006;2023-02-11T04:59:40;102904.53;;;7.29;100.00
66668;BME280;57205;51.438;-2.006;2023-02-11T05:02:05;102916.84;;;7.30;100.00
66668;BME280;57205;51.438;-2.006;2023-02-11T05:04:30;102914.19;;;7.30;100.00
66668;BME280;57205;51.438;-2.006;2023-02-11T05:06:56;102920.50;;;7.29;100.00
66668;BME280;57205;51.438;-2.006;2023-02-11T05:09:21;102919.53;;;7.30;100.00
66668;BME280;57205;51.438;-2.006;2023-02-11T05:11:47;102921.34;;;7.29;100.00
66668;BME280;57205;51.438;-2.006;2023-02-11T05:14:12;102922.19;;;7.30;100.00
66668;BME280;57205;51.438;-2.006;2023-02-11T05:16:37;102912.81;;;7.34;100.00
66668;BME280;57205;51.438;-2.006;2023-02-11T05:19:03;102910.31;;;7.32;100.00
66668;BME280;57205;51.438;-2.006;2023-02-11T05:21:28;102916.47;;;7.33;100.00
66668;BME280;57205;51.438;-2.006;2023-02-11T05:23:54;102925.28;;;7.33;100.00
66668;BME280;57205;51.438;-2.006;2023-02-11T05:26:19;102934.28;;;7.32;100.00
66668;BME280;57205;51.438;-2.006;2023-02-11T05:28:44;102933.28;;;7.33;100.00
66668;BME280;57205;51.438;-2.006;2023-02-11T05:31:10;102917.31;;;7.33;100.00
66668;BME280;57205;51.438;-2.006;2023-02-11T05:33:36;102913.63;;;7.34;100.00
66668;BME280;57205;51.438;-2.006;2023-02-11T05:36:03;102904.97;;;7.32;100.00
66668;BME280;57205;51.438;-2.006;2023-02-11T05:38:28;102909.50;;;7.32;100.00
66668;BME280;57205;51.438;-2.006;2023-02-11T05:40:53;102904.19;;;7.32;100.00
66668;BME280;57205;51.438;-2.006;2023-02-11T05:43:19;102907.00;;;7.30;100.00
66668;BME280;57205;51.438;-2.006;2023-02-11T05:45:44;102914.00;;;7.31;100.00
66668;BME280;57205;51.438;-2.006;2023-02-11T05:48:09;102915.81;;;7.31;100.00
66668;BME280;57205;51.438;-2.006;2023-02-11T05:50:34;102919.53;;;7.30;100.00
66668;BME280;57205;51.438;-2.006;2023-02-11T05:53:00;102919.31;;;7.31;100.00
66668;BME280;57205;51.438;-2.006;2023-02-11T05:55:25;102920.31;;;7.30;100.00
66668;BME280;57205;51.438;-2.006;2023-02-11T05:57:50;102916.66;;;7.31;100.00
66668;BME280;57205;51.438;-2.006;2023-02-11T06:00:16;102913.16;;;7.31;100.00
66668;BME280;57205;51.438;-2.006;2023-02-11T06:02:41;102908.88;;;7.30;100.00
66668;BME280;57205;51.438;-2.006;2023-02-11T06:05:06;102903.16;;;7.33;100.00
66668;BME280;57205;51.438;-2.006;2023-02-11T06:07:32;102907.47;;;7.34;100.00
66668;BME280;57205;51.438;-2.006;2023-02-11T06:09:57;102908.09;;;7.36;100.00
66668;BME280;57205;51.438;-2.006;2023-02-11T06:12:23;102905.44;;;7.36;100.00
66668;BME280;57205;51.438;-2.006;2023-02-11T06:14:48;102909.97;;;7.35;100.00
66668;BME280;57205;51.438;-2.006;2023-02-11T06:17:14;102916.91;;;7.36;100.00
66668;BME280;57205;51.438;-2.006;2023-02-11T06:19:39;102914.53;;;7.41;100.00
66668;BME280;57205;51.438;-2.006;2023-02-11T06:22:04;102912.31;;;7.45;100.00
66668;BME280;57205;51.438;-2.006;2023-02-11T06:24:29;102911.94;;;7.48;100.00
66668;BME280;57205;51.438;-2.006;2023-02-11T06:26:55;102914.41;;;7.49;100.00
66668;BME280;57205;51.438;-2.006;2023-02-11T06:29:20;102917.28;;;7.48;100.00
66668;BME280;57205;51.438;-2.006;2023-02-11T06:31:45;102910.47;;;7.45;100.00
66668;BME280;57205;51.438;-2.006;2023-02-11T06:34:10;102909.09;;;7.49;100.00
66668;BME280;57205;51.438;-2.006;2023-02-11T06:36:37;102912.38;;;7.51;100.00
66668;BME280;57205;51.438;-2.006;2023-02-11T06:39:03;102909.28;;;7.48;100.00
66668;BME280;57205;51.438;-2.006;2023-02-11T06:41:28;102912.97;;;7.47;100.00
66668;BME280;57205;51.438;-2.006;2023-02-11T06:43:53;102912.97;;;7.47;100.00
66668;BME280;57205;51.438;-2.006;2023-02-11T06:46:19;102913.56;;;7.49;100.00
66668;BME280;57205;51.438;-2.006;2023-02-11T06:48:44;102910.75;;;7.50;100.00
66668;BME280;57205;51.438;-2.006;2023-02-11T06:51:10;102912.59;;;7.50;100.00
66668;BME280;57205;51.438;-2.006;2023-02-11T06:53:38;102915.06;;;7.51;100.00
66668;BME280;57205;51.438;-2.006;2023-02-11T06:56:04;102908.91;;;7.51;100.00
66668;BME280;57205;51.438;-2.006;2023-02-11T06:58:29;102915.06;;;7.51;100.00
66668;BME280;57205;51.438;-2.006;2023-02-11T07:00:55;102913.41;;;7.50;100.00
66668;BME280;57205;51.438;-2.006;2023-02-11T07:03:21;102916.25;;;7.49;100.00
66668;BME280;57205;51.438;-2.006;2023-02-11T07:05:46;102920.97;;;7.47;100.00
66668;BME280;57205;51.438;-2.006;2023-02-11T07:08:11;102920.56;;;7.50;100.00
66668;BME280;57205;51.438;-2.006;2023-02-11T07:10:36;102926.34;;;7.53;100.00
66668;BME280;57205;51.438;-2.006;2023-02-11T07:13:01;102924.53;;;7.54;100.00
66668;BME280;57205;51.438;-2.006;2023-02-11T07:15:27;102930.03;;;7.52;100.00
66668;BME280;57205;51.438;-2.006;2023-02-11T07:17:52;102938.84;;;7.53;100.00
66668;BME280;57205;51.438;-2.006;2023-02-11T07:20:17;102938.84;;;7.53;100.00
66668;BME280;57205;51.438;-2.006;2023-02-11T07:22:43;102943.34;;;7.52;100.00
66668;BME280;57205;51.438;-2.006;2023-02-11T07:25:08;102943.53;;;7.51;100.00
66668;BME280;57205;51.438;-2.006;2023-02-11T07:27:33;102939.22;;;7.50;100.00
66668;BME280;57205;51.438;-2.006;2023-02-11T07:29:59;102945.53;;;7.49;100.00
66668;BME280;57205;51.438;-2.006;2023-02-11T07:32:24;102948.41;;;7.47;100.00
66668;BME280;57205;51.438;-2.006;2023-02-11T07:34:49;102952.94;;;7.47;100.00
66668;BME280;57205;51.438;-2.006;2023-02-11T07:37:14;102950.25;;;7.47;100.00
66668;BME280;57205;51.438;-2.006;2023-02-11T07:39:40;102950.88;;;7.49;100.00
66668;BME280;57205;51.438;-2.006;2023-02-11T07:42:05;102955.84;;;7.52;100.00
66668;BME280;57205;51.438;-2.006;2023-02-11T07:44:30;102951.34;;;7.52;100.00
66668;BME280;57205;51.438;-2.006;2023-02-11T07:46:57;102956.09;;;7.57;100.00
66668;BME280;57205;51.438;-2.006;2023-02-11T07:49:22;102955.09;;;7.58;100.00
66668;BME280;57205;51.438;-2.006;2023-02-11T07:51:48;102956.94;;;7.57;100.00
66668;BME280;57205;51.438;-2.006;2023-02-11T07:54:15;102961.44;;;7.57;100.00
66668;BME280;57205;51.438;-2.006;2023-02-11T07:56:40;102955.25;;;7.56;100.00
66668;BME280;57205;51.438;-2.006;2023-02-11T07:59:05;102964.28;;;7.55;100.00
66668;BME280;57205;51.438;-2.006;2023-02-11T08:01:31;102968.78;;;7.55;100.00
66668;BME280;57205;51.438;-2.006;2023-02-11T08:03:57;102972.09;;;7.57;100.00
66668;BME280;57205;51.438;-2.006;2023-02-11T08:06:23;102983.38;;;7.59;100.00
66668;BME280;57205;51.438;-2.006;2023-02-11T08:08:49;102976.03;;;7.61;100.00
66668;BME280;57205;51.438;-2.006;2023-02-11T08:11:16;102982.00;;;7.63;100.00
66668;BME280;57205;51.438;-2.006;2023-02-11T08:13:41;102981.81;;;7.64;100.00
66668;BME280;57205;51.438;-2.006;2023-02-11T08:16:07;102983.47;;;7.65;100.00
66668;BME280;57205;51.438;-2.006;2023-02-11T08:18:33;102980.63;;;7.67;100.00
66668;BME280;57205;51.438;-2.006;2023-02-11T08:21:05;102982.91;;;7.70;100.00
66668;BME280;57205;51.438;-2.006;2023-02-11T08:23:31;102987.22;;;7.71;100.00
66668;BME280;57205;51.438;-2.006;2023-02-11T08:26:00;102991.34;;;7.73;100.00
66668;BME280;57205;51.438;-2.006;2023-02-11T08:28:25;102983.59;;;7.78;100.00
66668;BME280;57205;51.438;-2.006;2023-02-11T08:30:50;102978.09;;;7.80;100.00
66668;BME280;57205;51.438;-2.006;2023-02-11T08:33:15;102993.72;;;7.83;100.00
66668;BME280;57205;51.438;-2.006;2023-02-11T08:35:41;102996.19;;;7.84;100.00
66668;BME280;57205;51.438;-2.006;2023-02-11T08:38:06;102996.63;;;7.88;100.00
66668;BME280;57205;51.438;-2.006;2023-02-11T08:40:31;102987.25;;;7.92;100.00
66668;BME280;57205;51.438;-2.006;2023-02-11T08:42:56;102996.13;;;7.99;100.00
66668;BME280;57205;51.438;-2.006;2023-02-11T08:45:22;102998.25;;;8.04;100.00
66668;BME280;57205;51.438;-2.006;2023-02-11T08:47:47;102994.38;;;8.06;100.00
66668;BME280;57205;51.438;-2.006;2023-02-11T08:50:12;102998.78;;;8.14;100.00
66668;BME280;57205;51.438;-2.006;2023-02-11T08:52:37;102995.72;;;8.17;100.00
66668;BME280;57205;51.438;-2.006;2023-02-11T08:55:03;102994.97;;;8.23;100.00
66668;BME280;57205;51.438;-2.006;2023-02-11T08:57:28;102995.44;;;8.26;100.00
66668;BME280;57205;51.438;-2.006;2023-02-11T08:59:54;102991.19;;;8.32;100.00
66668;BME280;57205;51.438;-2.006;2023-02-11T09:02:19;102997.59;;;8.37;100.00
66668;BME280;57205;51.438;-2.006;2023-02-11T09:04:44;103003.75;;;8.38;100.00
66668;BME280;57205;51.438;-2.006;2023-02-11T09:07:09;103005.00;;;8.42;100.00
66668;BME280;57205;51.438;-2.006;2023-02-11T09:09:36;103009.97;;;8.45;100.00
66668;BME280;57205;51.438;-2.006;2023-02-11T09:12:01;103011.25;;;8.49;100.00
66668;BME280;57205;51.438;-2.006;2023-02-11T09:14:27;103015.56;;;8.50;100.00
66668;BME280;57205;51.438;-2.006;2023-02-11T09:16:52;103010.03;;;8.51;100.00
66668;BME280;57205;51.438;-2.006;2023-02-11T09:19:18;103013.97;;;8.55;100.00
66668;BME280;57205;51.438;-2.006;2023-02-11T09:21:43;103013.97;;;8.55;100.00
66668;BME280;57205;51.438;-2.006;2023-02-11T09:24:09;103026.09;;;8.58;100.00
66668;BME280;57205;51.438;-2.006;2023-02-11T09:26:35;103026.53;;;8.61;100.00
66668;BME280;57205;51.438;-2.006;2023-02-11T09:29:00;103021.84;;;8.63;100.00
66668;BME280;57205;51.438;-2.006;2023-02-11T09:31:27;103026.53;;;8.61;100.00
66668;BME280;57205;51.438;-2.006;2023-02-11T09:33:54;103027.38;;;8.62;100.00
66668;BME280;57205;51.438;-2.006;2023-02-11T09:36:21;103023.47;;;8.64;100.00
66668;BME280;57205;51.438;-2.006;2023-02-11T09:38:47;103012.59;;;8.66;100.00
66668;BME280;57205;51.438;-2.006;2023-02-11T09:43:47;103016.63;;;8.76;100.00
66668;BME280;57205;51.438;-2.006;2023-02-11T09:46:14;103012.28;;;8.75;100.00
66668;BME280;57205;51.438;-2.006;2023-02-11T09:48:40;103009.41;;;8.77;100.00
66668;BME280;57205;51.438;-2.006;2023-02-11T09:51:11;103010.88;;;8.79;100.00
66668;BME280;57205;51.438;-2.006;2023-02-11T09:53:41;103005.78;;;8.84;100.00
66668;BME280;57205;51.438;-2.006;2023-02-11T09:56:11;103007.47;;;8.92;100.00
66668;BME280;57205;51.438;-2.006;2023-02-11T09:58:39;103007.09;;;8.95;100.00
66668;BME280;57205;51.438;-2.006;2023-02-11T10:03:46;103009.22;;;9.06;100.00
66668;BME280;57205;51.438;-2.006;2023-02-11T10:17:02;103008.28;;;9.20;100.00
66668;BME280;57205;51.438;-2.006;2023-02-11T10:24:29;103014.69;;;9.26;100.00
66668;BME280;57205;51.438;-2.006;2023-02-11T10:26:55;103023.09;;;9.23;100.00
66668;BME280;57205;51.438;-2.006;2023-02-11T10:29:34;103030.34;;;9.29;100.00
66668;BME280;57205;51.438;-2.006;2023-02-11T10:32:03;103027.47;;;9.30;100.00
66668;BME280;57205;51.438;-2.006;2023-02-11T10:34:29;103037.72;;;9.27;100.00
66668;BME280;57205;51.438;-2.006;2023-02-11T10:36:54;103030.34;;;9.29;100.00
66668;BME280;57205;51.438;-2.006;2023-02-11T10:39:21;103024.59;;;9.32;100.00
66668;BME280;57205;51.438;-2.006;2023-02-11T10:41:51;103018.84;;;9.35;100.00
66668;BME280;57205;51.438;-2.006;2023-02-11T10:44:22;103022.16;;;9.37;100.00
66668;BME280;57205;51.438;-2.006;2023-02-11T10:46:48;103016.00;;;9.36;100.00
66668;BME280;57205;51.438;-2.006;2023-02-11T10:49:32;103017.66;;;9.44;100.00
66668;BME280;57205;51.438;-2.006;2023-02-11T10:52:11;103014.44;;;9.55;100.00
66668;BME280;57205;51.438;-2.006;2023-02-11T10:54:38;103019.41;;;9.64;100.00
66668;BME280;57205;51.438;-2.006;2023-02-11T10:57:03;103024.81;;;9.77;100.00
66668;BME280;57205;51.438;-2.006;2023-02-11T10:59:30;103017.19;;;9.81;100.00
66668;BME280;57205;51.438;-2.006;2023-02-11T11:02:04;103022.38;;;9.89;100.00
66668;BME280;57205;51.438;-2.006;2023-02-11T11:04:39;103018.06;;;9.95;100.00
66668;BME280;57205;51.438;-2.006;2023-02-11T11:07:11;103026.09;;;9.95;100.00
66668;BME280;57205;51.438;-2.006;2023-02-11T11:10:24;103024.47;;;10.00;100.00
66668;BME280;57205;51.438;-2.006;2023-02-11T11:12:35;103022.84;;;10.06;100.00
66668;BME280;57205;51.438;-2.006;2023-02-11T11:17:37;103026.97;;;10.08;100.00
66668;BME280;57205;51.438;-2.006;2023-02-11T11:20:13;103015.09;;;10.24;100.00
66668;BME280;57205;51.438;-2.006;2023-02-11T11:22:38;103012.22;;;10.32;100.00
66668;BME280;57205;51.438;-2.006;2023-02-11T11:25:04;103005.84;;;10.39;100.00
66668;BME280;57205;51.438;-2.006;2023-02-11T11:27:30;103016.75;;;10.31;100.00
66668;BME280;57205;51.438;-2.006;2023-02-11T11:29:55;103020.03;;;10.33;100.00
66668;BME280;57205;51.438;-2.006;2023-02-11T11:32:21;103015.56;;;10.40;100.00
66668;BME280;57205;51.438;-2.006;2023-02-11T11:34:52;103011.22;;;10.46;100.00
66668;BME280;57205;51.438;-2.006;2023-02-11T11:40:45;103008.97;;;10.49;100.00
66668;BME280;57205;51.438;-2.006;2023-02-11T11:42:39;103005.03;;;10.52;100.00
66668;BME280;57205;51.438;-2.006;2023-02-11T11:47:38;103011.03;;;10.60;100.00
66668;BME280;57205;51.438;-2.006;2023-02-11T11:52:38;103001.13;;;10.74;100.00
66668;BME280;57205;51.438;-2.006;2023-02-11T11:57:32;102997.00;;;10.91;100.00
66668;BME280;57205;51.438;-2.006;2023-02-11T11:59:59;102989.16;;;10.96;100.00
66668;BME280;57205;51.438;-2.006;2023-02-11T12:05:35;102985.25;;;11.05;100.00
66668;BME280;57205;51.438;-2.006;2023-02-11T12:13:26;102987.09;;;11.05;100.00
66668;BME280;57205;51.438;-2.006;2023-02-11T12:18:31;102963.81;;;10.92;100.00
66668;BME280;57205;51.438;-2.006;2023-02-11T12:26:13;102964.03;;;10.84;100.00
66668;BME280;57205;51.438;-2.006;2023-02-11T12:31:23;102958.91;;;10.82;100.00
66668;BME280;57205;51.438;-2.006;2023-02-11T12:41:22;102964.06;;;10.64;100.00
66668;BME280;57205;51.438;-2.006;2023-02-11T12:44:13;102957.25;;;10.68;100.00
66668;BME280;57205;51.438;-2.006;2023-02-11T12:46:50;102945.94;;;10.73;100.00
66668;BME280;57205;51.438;-2.006;2023-02-11T12:49:26;102956.44;;;10.81;100.00
66668;BME280;57205;51.438;-2.006;2023-02-11T12:52:03;102958.28;;;10.80;100.00
66668;BME280;57205;51.438;-2.006;2023-02-11T12:54:37;102952.94;;;10.80;100.00
66668;BME280;57205;51.438;-2.006;2023-02-11T13:02:13;102951.69;;;10.83;100.00
66668;BME280;57205;51.438;-2.006;2023-02-11T13:04:40;102953.72;;;10.88;100.00
66668;BME280;57205;51.438;-2.006;2023-02-11T13:07:10;102955.59;;;10.80;100.00
66668;BME280;57205;51.438;-2.006;2023-02-11T13:09:41;102952.31;;;10.78;100.00
66668;BME280;57205;51.438;-2.006;2023-02-11T13:12:07;102947.56;;;10.74;100.00
66668;BME280;57205;51.438;-2.006;2023-02-11T13:14:53;102948.78;;;10.78;100.00
66668;BME280;57205;51.438;-2.006;2023-02-11T13:17:27;102951.25;;;10.79;100.00
66668;BME280;57205;51.438;-2.006;2023-02-11T13:19:57;102944.50;;;10.77;100.00
66668;BME280;57205;51.438;-2.006;2023-02-11T13:25:00;102949.03;;;10.83;100.00
66668;BME280;57205;51.438;-2.006;2023-02-11T13:27:42;102947.56;;;10.80;100.00
66668;BME280;57205;51.438;-2.006;2023-02-11T13:35:28;102934.38;;;10.86;100.00
66668;BME280;57205;51.438;-2.006;2023-02-11T13:37:54;102924.66;;;10.91;100.00
66668;BME280;57205;51.438;-2.006;2023-02-11T13:40:21;102930.63;;;10.93;100.00
66668;BME280;57205;51.438;-2.006;2023-02-11T13:42:52;102926.50;;;10.97;100.00
66668;BME280;57205;51.438;-2.006;2023-02-11T13:45:29;102934.13;;;11.00;100.00
66668;BME280;57205;51.438;-2.006;2023-02-11T13:47:57;102936.19;;;11.05;100.00
66668;BME280;57205;51.438;-2.006;2023-02-11T13:50:23;102938.44;;;11.08;100.00
66668;BME280;57205;51.438;-2.006;2023-02-11T13:52:55;102927.69;;;11.14;98.08
66668;BME280;57205;51.438;-2.006;2023-02-11T13:55:21;102932.84;;;11.09;98.33
66668;BME280;57205;51.438;-2.006;2023-02-11T14:09:07;102925.50;;;10.92;100.00
66668;BME280;57205;51.438;-2.006;2023-02-11T14:16:27;102915.22;;;10.82;100.00
66668;BME280;57205;51.438;-2.006;2023-02-11T14:21:22;102906.75;;;10.85;100.00
66668;BME280;57205;51.438;-2.006;2023-02-11T14:23:48;102910.06;;;10.80;100.00
66668;BME280;57205;51.438;-2.006;2023-02-11T14:28:51;102906.56;;;10.87;100.00
66668;BME280;57205;51.438;-2.006;2023-02-11T14:31:26;102906.97;;;10.90;100.00